Tuftonboro, NH

2:17 AM EST on January 26, 2015 (GMT -0500)
Skyhaven | Change Station
CLOSE
Current Station
Airport
Location: Rochester,
Elevation: 322 ft
Nearby Weather Stations
Active Advisory: Winter Storm Warning

Elev 322 ft 43.28 °N, 70.92 °W | Updated 26 minutes ago

Clear
Clear
6 °F
Feels Like 6 °F
N
0
Wind Variable Wind from North

Today
High -- | Low -- °F
--% Chance of Precip.
Yesterday
High -- | Low -- °F
Precip. -- in
7:07 AM 4:47 PM
Waxing Crescent, 40% visible
Pressure 30.06 in
Visibility 10.0 miles
Clouds Clear
Dew Point -6 °F
Humidity 58%
Rainfall 0.00 in
Snow Depth Not available.
UV 0 out of 12
Pollen .10 out of 12
Air Quality Not available.
Flu Activity Not available.
METAR KDAW 260651Z AUTO 00000KT 10SM CLR M14/M21 A3006 RMK AO2 SLP180 T11441211

More Conditions Fewer Conditions

Pressure 30.06 in
Visibility 10.0 miles
Clouds Clear
Dew Point -6 °F
Humidity 58%
Rainfall 0.00 in
Snow Depth Not available.
UV 0 out of 12
Pollen .10 out of 12
Air Quality Not available.
Flu Activity Not available.
METAR KDAW 260651Z AUTO 00000KT 10SM CLR M14/M21 A3006 RMK AO2 SLP180 T11441211

More Conditions Fewer Conditions

10-Day Weather Forecast

Almanac

Astronomy

Jan. 26, 2015 Rise Set
Actual Time
Civil Twilight
Nautical Twilight
Astronomical Twilight
Moon
Length of Visible Light
Length of Day
Tomorrow will be .
, % of the Moon is Illuminated

Today's Extremes

State Highs State Lows

Community

WunderPhotos

Upload Photos

1,790,155 photos uploaded!

WunderBlogs® & News

Nearby

Air Quality

  Air Quality AQ Index Pollutant
Not available.

Snow Depth

Station Depth Elevation

Earthquake Activity

City Distance Mag. Time & Date
Minimum magnitude displayed is 2.5.

Coastal Water Temperatures

Place Temperature

Nearby Weather Stations